createdAt,value
2019-04-14T00:02:12.238Z,0.80
2019-04-14T00:04:46.854Z,0.80
2019-04-14T00:07:23.076Z,0.70
2019-04-14T00:09:54.206Z,0.80
2019-04-14T00:12:25.538Z,0.70
2019-04-14T00:14:53.429Z,0.70
2019-04-14T00:17:21.604Z,0.70
2019-04-14T00:19:50.182Z,0.70
2019-04-14T00:22:18.511Z,0.70
2019-04-14T00:24:46.725Z,0.70
2019-04-14T00:27:14.983Z,0.60
2019-04-14T00:29:43.592Z,0.60
2019-04-14T00:32:14.069Z,0.60
2019-04-14T00:35:10.379Z,0.60
2019-04-14T00:38:04.208Z,0.50
2019-04-14T00:40:36.804Z,0.50
2019-04-14T00:43:26.690Z,0.50
2019-04-14T00:46:02.702Z,0.50
2019-04-14T00:48:31.930Z,0.50
2019-04-14T00:51:00.632Z,0.40
2019-04-14T00:53:29.568Z,0.40
2019-04-14T00:55:57.614Z,0.40
2019-04-14T00:58:25.722Z,0.30
2019-04-14T01:00:54.142Z,0.30
2019-04-14T01:03:22.021Z,0.30
2019-04-14T01:05:52.643Z,0.20
2019-04-14T01:08:20.589Z,0.20
2019-04-14T01:10:48.258Z,0.20
2019-04-14T01:13:15.846Z,0.10
2019-04-14T01:15:51.292Z,0.10
2019-04-14T01:18:12.597Z,0.10
2019-04-14T01:20:40.637Z,0.10
2019-04-14T01:23:10.595Z,0.10
2019-04-14T01:25:38.974Z,0.00
2019-04-14T01:28:06.904Z,0.00
2019-04-14T01:30:35.086Z,0.00
2019-04-14T01:33:07.617Z,-0.10
2019-04-14T01:35:36.155Z,-0.10
2019-04-14T01:38:03.847Z,0.00
2019-04-14T01:40:32.140Z,0.00
2019-04-14T01:42:59.605Z,-0.10
2019-04-14T01:45:28.144Z,0.00
2019-04-14T01:47:57.503Z,0.00
2019-04-14T01:50:38.802Z,-0.10
2019-04-14T01:53:11.980Z,0.00
2019-04-14T01:55:59.190Z,0.00
2019-04-14T01:58:49.122Z,-0.10
2019-04-14T02:01:30.305Z,-0.10
2019-04-14T02:04:00.630Z,-0.10
2019-04-14T02:06:28.802Z,-0.10
2019-04-14T02:08:56.844Z,-0.10
2019-04-14T02:11:27.613Z,-0.10
2019-04-14T02:13:55.117Z,-0.10
2019-04-14T02:16:30.964Z,-0.10
2019-04-14T02:18:56.856Z,-0.10
2019-04-14T02:21:25.855Z,-0.10
2019-04-14T02:23:54.019Z,-0.10
2019-04-14T02:26:28.575Z,-0.10
2019-04-14T02:28:59.252Z,-0.20
2019-04-14T02:31:57.021Z,-0.10
2019-04-14T02:34:29.787Z,-0.10
2019-04-14T02:36:58.601Z,-0.10
2019-04-14T02:39:20.963Z,-0.10
2019-04-14T02:42:02.591Z,-0.10
2019-04-14T02:44:23.720Z,-0.10
2019-04-14T02:49:19.439Z,-0.10
2019-04-14T02:51:49.794Z,-0.10
2019-04-14T02:54:23.164Z,-0.10
2019-04-14T02:56:57.900Z,-0.20
2019-04-14T02:59:24.716Z,-0.10
2019-04-14T03:04:21.508Z,-0.20
2019-04-14T03:06:48.510Z,-0.20
2019-04-14T03:09:34.758Z,-0.20
2019-04-14T03:11:49.067Z,-0.10
2019-04-14T03:14:15.714Z,-0.20
2019-04-14T03:19:46.202Z,-0.30
2019-04-14T03:25:00.489Z,-0.30
2019-04-14T03:27:49.950Z,-0.30
2019-04-14T03:38:04.436Z,-0.40
2019-04-14T03:40:34.033Z,-0.40
2019-04-14T03:45:39.403Z,-0.40
2019-04-14T03:48:20.843Z,-0.50
2019-04-14T03:50:28.208Z,-0.50
2019-04-14T03:53:19.123Z,-0.50
2019-04-14T03:55:16.042Z,-0.50
2019-04-14T03:57:34.457Z,-0.60
2019-04-14T04:00:09.497Z,-0.70
2019-04-14T04:02:46.685Z,-0.60
2019-04-14T04:05:17.326Z,-0.60
2019-04-14T04:07:45.809Z,-0.60
2019-04-14T04:10:17.877Z,-0.60
2019-04-14T04:12:46.587Z,-0.60
2019-04-14T04:15:14.963Z,-0.60
2019-04-14T04:17:53.699Z,-0.50
2019-04-14T04:20:56.652Z,-0.50
2019-04-14T04:23:42.993Z,-0.50
2019-04-14T04:26:19.714Z,-0.40
2019-04-14T04:29:09.212Z,-0.40
2019-04-14T04:31:50.371Z,-0.30
2019-04-14T04:34:53.420Z,-0.30
2019-04-14T04:37:54.093Z,-0.20
2019-04-14T04:40:24.728Z,-0.20
2019-04-14T04:42:52.702Z,-0.10
2019-04-14T04:45:27.710Z,-0.20
2019-04-14T04:47:55.622Z,-0.10
2019-04-14T04:50:23.881Z,-0.10
2019-04-14T04:52:51.818Z,-0.10
2019-04-14T04:55:22.344Z,0.00
2019-04-14T04:57:52.380Z,0.00
2019-04-14T05:00:20.327Z,0.00
2019-04-14T05:02:50.581Z,0.00
2019-04-14T05:06:01.111Z,0.00
2019-04-14T05:08:36.907Z,0.00
2019-04-14T05:11:23.212Z,0.00
2019-04-14T05:13:55.752Z,0.10
2019-04-14T05:16:26.017Z,0.00
2019-04-14T05:18:53.541Z,0.00
2019-04-14T05:21:23.484Z,0.00
2019-04-14T05:23:53.879Z,0.00
2019-04-14T05:26:23.042Z,0.00
2019-04-14T05:28:50.751Z,0.00
2019-04-14T05:31:18.632Z,0.10
2019-04-14T05:33:47.280Z,0.10
2019-04-14T05:36:15.057Z,0.10
2019-04-14T05:38:45.008Z,0.20
2019-04-14T05:41:13.669Z,0.10
2019-04-14T05:43:48.789Z,0.20
2019-04-14T05:46:14.159Z,0.30
2019-04-14T05:48:42.524Z,0.30
2019-04-14T05:51:11.237Z,0.40
2019-04-14T05:53:39.407Z,0.50
2019-04-14T05:56:07.912Z,0.50
2019-04-14T05:58:36.132Z,0.60
2019-04-14T06:01:04.728Z,0.60
2019-04-14T06:03:32.882Z,0.70
2019-04-14T06:06:03.136Z,0.70
2019-04-14T06:08:32.872Z,0.80
2019-04-14T06:11:00.767Z,0.90
2019-04-14T06:13:28.291Z,0.90
2019-04-14T06:15:55.819Z,1.00
2019-04-14T06:18:23.760Z,1.00
2019-04-14T06:20:52.817Z,1.10
2019-04-14T06:23:20.693Z,1.20
2019-04-14T06:25:50.763Z,1.20
2019-04-14T06:28:19.476Z,1.30
2019-04-14T06:34:01.399Z,1.40
2019-04-14T06:36:52.907Z,1.50
2019-04-14T06:39:32.577Z,1.50
2019-04-14T06:42:06.901Z,1.60
2019-04-14T06:44:36.022Z,1.60
2019-04-14T06:47:03.749Z,1.60
2019-04-14T06:49:31.436Z,1.70
2019-04-14T06:52:03.625Z,1.70
2019-04-14T06:54:31.359Z,1.80
2019-04-14T06:57:05.982Z,1.80
2019-04-14T06:59:33.848Z,1.80
2019-04-14T07:02:02.076Z,1.90
2019-04-14T07:04:35.967Z,2.00
2019-04-14T07:07:03.933Z,2.00
2019-04-14T07:09:31.979Z,2.10
2019-04-14T07:12:04.748Z,2.20
2019-04-14T07:16:03.100Z,2.20
2019-04-14T07:18:35.263Z,2.30
2019-04-14T07:21:05.964Z,2.50
2019-04-14T07:23:39.204Z,2.60
2019-04-14T07:26:12.531Z,2.70
2019-04-14T07:28:41.082Z,2.80
2019-04-14T07:31:29.474Z,2.90
2019-04-14T07:34:36.363Z,3.00
2019-04-14T07:37:22.321Z,3.10
2019-04-14T07:40:10.024Z,3.30
2019-04-14T07:42:51.579Z,3.40
2019-04-14T07:45:25.829Z,3.50
2019-04-14T07:48:01.224Z,3.50
2019-04-14T07:51:00.516Z,3.50
2019-04-14T07:53:33.238Z,3.30
2019-04-14T07:56:24.733Z,3.60
2019-04-14T07:59:24.154Z,3.70
2019-04-14T08:01:54.547Z,3.80
2019-04-14T08:04:29.585Z,4.00
2019-04-14T08:07:00.496Z,4.10
2019-04-14T08:09:28.096Z,4.10
2019-04-14T08:11:55.720Z,4.10
2019-04-14T08:14:25.006Z,4.20
2019-04-14T08:16:56.324Z,4.40
2019-04-14T08:19:25.262Z,5.10
2019-04-14T08:21:53.415Z,5.60
2019-04-14T08:24:27.315Z,6.00
2019-04-14T08:26:56.180Z,6.10
2019-04-14T08:29:23.734Z,6.20
2019-04-14T08:31:54.280Z,6.80
2019-04-14T08:34:22.275Z,7.10
2019-04-14T08:36:51.182Z,7.60
2019-04-14T08:39:19.805Z,8.00
2019-04-14T08:42:08.145Z,8.00
2019-04-14T08:45:26.393Z,8.70
2019-04-14T08:48:44.304Z,9.20
2019-04-14T08:52:17.010Z,9.60
2019-04-14T08:56:30.995Z,10.20
2019-04-14T09:00:08.097Z,10.00
2019-04-14T09:03:49.410Z,10.10
2019-04-14T09:07:26.393Z,10.90
2019-04-14T09:10:50.554Z,11.60
2019-04-14T09:14:40.403Z,12.60
2019-04-14T09:18:02.175Z,12.90
2019-04-14T09:21:16.796Z,13.00
2019-04-14T09:24:25.930Z,13.30
2019-04-14T09:28:02.048Z,13.10
2019-04-14T09:31:15.251Z,13.40
2019-04-14T09:34:46.222Z,13.70
2019-04-14T09:37:39.135Z,14.10
2019-04-14T09:40:49.359Z,14.60
2019-04-14T09:44:10.354Z,15.30
2019-04-14T09:47:36.421Z,14.30
2019-04-14T09:51:09.611Z,15.00
2019-04-14T09:54:39.443Z,15.90
2019-04-14T09:57:17.969Z,15.90
2019-04-14T10:00:35.183Z,16.50
2019-04-14T10:04:01.088Z,16.50
2019-04-14T10:07:21.704Z,17.30
2019-04-14T10:10:41.746Z,17.80
2019-04-14T10:14:09.229Z,16.80
2019-04-14T10:16:45.863Z,17.30
2019-04-14T10:20:35.524Z,17.80
2019-04-14T10:24:00.438Z,18.10
2019-04-14T10:27:26.318Z,16.90
2019-04-14T10:30:38.296Z,16.40
2019-04-14T10:34:00.634Z,15.70
2019-04-14T10:37:28.728Z,15.40
2019-04-14T10:40:54.907Z,15.70
2019-04-14T10:47:44.724Z,16.60
2019-04-14T10:50:59.422Z,16.80
2019-04-14T10:54:22.344Z,17.20
2019-04-14T10:57:46.087Z,16.30
2019-04-14T11:01:31.403Z,16.20
2019-04-14T11:04:04.202Z,16.50
2019-04-14T11:07:25.700Z,16.50
2019-04-14T11:10:52.359Z,16.90
2019-04-14T11:13:22.548Z,17.50
2019-04-14T11:16:45.443Z,17.30
2019-04-14T11:20:21.257Z,17.00
2019-04-14T11:23:44.129Z,16.80
2019-04-14T11:27:10.080Z,16.90
2019-04-14T11:29:56.706Z,16.60
2019-04-14T11:33:26.803Z,17.00
2019-04-14T11:37:04.912Z,17.10
2019-04-14T11:40:18.146Z,17.20
2019-04-14T11:43:43.773Z,17.10
2019-04-14T11:46:56.840Z,16.70
2019-04-14T11:50:15.259Z,16.70
2019-04-14T11:53:39.700Z,16.60
2019-04-14T11:57:24.735Z,16.80
2019-04-14T12:01:01.336Z,17.20
2019-04-14T12:04:23.293Z,17.70
2019-04-14T12:07:41.107Z,16.90
2019-04-14T12:11:00.731Z,16.80
2019-04-14T12:14:36.712Z,17.10
2019-04-14T12:17:27.439Z,16.90
2019-04-14T12:21:00.737Z,16.80
2019-04-14T12:24:04.910Z,17.00
2019-04-14T12:27:09.798Z,16.70
2019-04-14T12:30:31.300Z,17.50
2019-04-14T12:33:34.699Z,17.00
2019-04-14T12:37:02.016Z,17.60
2019-04-14T12:40:17.882Z,17.50
2019-04-14T12:44:37.269Z,17.40
2019-04-14T12:48:06.726Z,16.80
2019-04-14T12:51:45.194Z,17.70
2019-04-14T12:54:26.951Z,17.60
2019-04-14T12:57:03.679Z,17.00
2019-04-14T13:00:02.369Z,16.60
2019-04-14T13:02:41.430Z,17.20
2019-04-14T13:05:10.276Z,17.80
2019-04-14T13:08:36.226Z,17.90
2019-04-14T13:11:07.957Z,17.30
2019-04-14T13:14:02.989Z,17.40
2019-04-14T13:16:33.265Z,17.50
2019-04-14T13:19:11.670Z,17.90
2019-04-14T13:21:48.267Z,17.40
2019-04-14T13:24:24.338Z,17.10
2019-04-14T13:26:55.960Z,16.80
2019-04-14T13:29:25.627Z,16.80
2019-04-14T13:31:56.819Z,17.40
2019-04-14T13:34:27.849Z,17.00
2019-04-14T13:37:09.132Z,16.70
2019-04-14T13:39:38.266Z,17.00
2019-04-14T13:42:14.416Z,16.70
2019-04-14T13:45:59.751Z,16.60
2019-04-14T13:48:16.232Z,16.50
2019-04-14T13:50:45.240Z,16.20
2019-04-14T13:53:14.803Z,15.90
2019-04-14T13:55:45.064Z,15.50
2019-04-14T13:58:16.655Z,15.70
2019-04-14T14:01:01.494Z,15.70
2019-04-14T14:03:35.241Z,15.80
2019-04-14T14:06:02.929Z,15.70
2019-04-14T14:08:36.978Z,16.00
2019-04-14T14:11:32.476Z,16.20
2019-04-14T14:14:06.425Z,15.90
2019-04-14T14:17:06.213Z,15.70
2019-04-14T14:19:49.703Z,15.50
2019-04-14T14:22:45.630Z,15.70
2019-04-14T14:25:17.359Z,15.50
2019-04-14T14:27:49.558Z,15.40
2019-04-14T14:30:19.090Z,15.50
2019-04-14T14:32:52.302Z,15.50
2019-04-14T14:35:20.631Z,15.50
2019-04-14T14:37:50.002Z,15.60
2019-04-14T14:40:17.604Z,15.80
2019-04-14T14:42:51.508Z,15.80
2019-04-14T14:45:40.912Z,16.00
2019-04-14T14:48:17.752Z,16.20
2019-04-14T14:50:50.751Z,16.10
2019-04-14T14:53:22.529Z,16.10
2019-04-14T14:55:50.083Z,15.70
2019-04-14T14:58:17.542Z,15.50
2019-04-14T15:00:45.290Z,15.40
2019-04-14T15:03:15.868Z,15.50
2019-04-14T15:05:44.297Z,15.60
2019-04-14T15:08:12.215Z,15.70
2019-04-14T15:10:40.061Z,16.00
2019-04-14T15:13:08.522Z,15.80
2019-04-14T15:15:36.199Z,15.90
2019-04-14T15:18:03.771Z,15.90
2019-04-14T15:20:31.629Z,15.80
2019-04-14T15:22:59.366Z,15.50
2019-04-14T15:25:26.777Z,15.30
2019-04-14T15:28:00.448Z,15.60
2019-04-14T15:30:27.998Z,15.50
2019-04-14T15:32:55.381Z,15.50
2019-04-14T15:35:22.882Z,15.20
2019-04-14T15:37:50.951Z,15.10
2019-04-14T15:40:18.777Z,15.20
2019-04-14T15:42:51.947Z,14.90
2019-04-14T15:45:22.955Z,14.70
2019-04-14T15:47:54.027Z,14.40
2019-04-14T15:50:21.473Z,14.10
2019-04-14T15:52:49.156Z,14.10
2019-04-14T15:55:18.111Z,14.30
2019-04-14T15:58:14.086Z,14.00
2019-04-14T16:00:59.856Z,13.90
2019-04-14T16:03:38.285Z,13.90
2019-04-14T16:06:13.342Z,14.00
2019-04-14T16:09:13.581Z,14.00
2019-04-14T16:12:03.174Z,14.00
2019-04-14T16:15:01.106Z,13.90
2019-04-14T16:17:45.642Z,13.70
2019-04-14T16:20:17.440Z,13.60
2019-04-14T16:22:44.963Z,13.60
2019-04-14T16:25:13.485Z,13.40
2019-04-14T16:27:57.947Z,13.40
2019-04-14T16:30:40.761Z,13.30
2019-04-14T16:33:19.766Z,13.20
2019-04-14T16:35:47.283Z,13.10
2019-04-14T16:38:14.789Z,13.00
2019-04-14T16:40:42.319Z,12.90
2019-04-14T16:43:15.307Z,13.00
2019-04-14T16:45:43.126Z,12.90
2019-04-14T16:48:10.809Z,12.80
2019-04-14T16:50:38.249Z,12.80
2019-04-14T16:53:19.817Z,12.80
2019-04-14T16:56:09.592Z,12.70
2019-04-14T16:59:13.863Z,12.60
2019-04-14T17:01:44.818Z,12.70
2019-04-14T17:04:12.788Z,12.50
2019-04-14T17:06:43.004Z,12.50
2019-04-14T17:09:12.509Z,12.50
2019-04-14T17:11:42.055Z,12.40
2019-04-14T17:14:20.804Z,12.40
2019-04-14T17:17:09.562Z,12.30
2019-04-14T17:19:57.332Z,12.30
2019-04-14T17:22:45.821Z,12.20
2019-04-14T17:25:23.156Z,12.20
2019-04-14T17:28:26.186Z,12.20
2019-04-14T17:31:03.478Z,12.10
2019-04-14T17:33:35.038Z,11.90
2019-04-14T17:36:22.222Z,11.90
2019-04-14T17:39:36.857Z,11.80
2019-04-14T17:42:23.719Z,11.70
2019-04-14T17:45:09.564Z,11.60
2019-04-14T17:48:02.577Z,11.60
2019-04-14T17:50:45.546Z,11.50
2019-04-14T17:53:45.306Z,11.50
2019-04-14T17:56:39.997Z,11.40
2019-04-14T17:59:33.940Z,11.30
2019-04-14T18:02:49.335Z,11.10
2019-04-14T18:05:43.103Z,11.10
2019-04-14T18:08:20.488Z,11.00
2019-04-14T18:10:54.680Z,10.80
2019-04-14T18:13:57.148Z,10.70
2019-04-14T18:16:48.716Z,10.50
2019-04-14T18:19:28.610Z,10.30
2019-04-14T18:21:58.608Z,10.20
2019-04-14T18:24:42.146Z,10.20
2019-04-14T18:27:05.413Z,10.10
2019-04-14T18:29:40.906Z,10.10
2019-04-14T18:32:37.118Z,10.00
2019-04-14T18:35:09.507Z,9.90
2019-04-14T18:37:51.744Z,9.80
2019-04-14T18:40:37.487Z,9.80
2019-04-14T18:43:25.927Z,9.70
2019-04-14T18:46:08.575Z,9.70
2019-04-14T18:49:01.394Z,9.60
2019-04-14T18:51:46.938Z,9.50
2019-04-14T18:54:38.517Z,9.50
2019-04-14T18:57:13.770Z,9.30
2019-04-14T18:59:59.861Z,9.20
2019-04-14T19:02:27.431Z,9.00
2019-04-14T19:05:01.185Z,8.80
2019-04-14T19:07:29.113Z,8.70
2019-04-14T19:09:58.605Z,8.60
2019-04-14T19:12:52.946Z,8.50
2019-04-14T19:15:51.953Z,8.50
2019-04-14T19:18:27.876Z,8.40
2019-04-14T19:21:09.693Z,8.30
2019-04-14T19:23:40.980Z,8.10
2019-04-14T19:26:20.868Z,8.10
2019-04-14T19:28:49.419Z,8.00
2019-04-14T19:31:17.651Z,8.00
2019-04-14T19:33:45.385Z,8.00
2019-04-14T19:36:13.418Z,7.90
2019-04-14T19:38:41.187Z,7.90
2019-04-14T19:41:08.861Z,7.90
2019-04-14T19:43:36.457Z,7.80
2019-04-14T19:46:04.322Z,7.80
2019-04-14T19:48:32.149Z,7.70
2019-04-14T19:50:59.892Z,7.60
2019-04-14T19:53:28.478Z,7.60
2019-04-14T19:55:56.347Z,7.50
2019-04-14T19:58:24.053Z,7.40
2019-04-14T20:00:53.415Z,7.40
2019-04-14T20:03:23.020Z,7.30
2019-04-14T20:05:51.042Z,7.30
2019-04-14T20:08:19.896Z,7.20
2019-04-14T20:39:39.380Z,6.80
2019-04-14T20:42:30.450Z,6.80
2019-04-14T20:45:13.298Z,6.70
2019-04-14T20:47:59.354Z,6.60
2019-04-14T20:50:51.972Z,6.80
2019-04-14T20:53:18.741Z,6.60
2019-04-14T20:55:47.628Z,6.60
2019-04-14T20:58:14.986Z,6.50
2019-04-14T21:00:42.004Z,6.40
2019-04-14T21:03:37.747Z,6.30
2019-04-14T21:06:27.640Z,6.10
2019-04-14T21:09:13.051Z,6.20
2019-04-14T21:11:58.603Z,6.20
2019-04-14T21:14:48.902Z,6.10
2019-04-14T21:17:26.021Z,6.00
2019-04-14T21:20:11.223Z,6.00
2019-04-14T21:22:53.397Z,5.90
2019-04-14T21:26:00.355Z,5.80
2019-04-14T21:28:41.404Z,5.70
2019-04-14T21:31:33.736Z,5.70
2019-04-14T21:34:18.948Z,5.60
2019-04-14T21:37:04.243Z,5.60
2019-04-14T21:39:57.765Z,5.60
2019-04-14T21:42:25.904Z,5.50
2019-04-14T21:44:54.834Z,5.50
2019-04-14T21:47:22.046Z,5.50
2019-04-14T21:49:48.975Z,5.40
2019-04-14T21:52:36.969Z,5.40
2019-04-14T21:55:08.058Z,5.40
2019-04-14T21:57:57.935Z,5.40
2019-04-14T22:01:14.007Z,5.40
2019-04-14T22:03:53.522Z,5.40
2019-04-14T22:06:35.376Z,5.40
2019-04-14T22:09:07.995Z,5.50
2019-04-14T22:11:36.138Z,5.50
2019-04-14T22:14:06.714Z,5.50
2019-04-14T22:16:33.880Z,5.50
2019-04-14T22:19:07.042Z,5.60
2019-04-14T22:21:34.915Z,5.60
2019-04-14T22:24:05.432Z,5.70
2019-04-14T22:26:33.382Z,5.70
2019-04-14T22:29:18.670Z,5.70
2019-04-14T22:31:45.577Z,5.80
2019-04-14T22:34:13.028Z,5.80
2019-04-14T22:36:40.864Z,5.80
2019-04-14T22:39:20.628Z,5.80
2019-04-14T22:41:47.539Z,5.90
2019-04-14T22:44:14.522Z,5.90
2019-04-14T22:46:42.470Z,5.90
2019-04-14T22:49:09.324Z,6.00
2019-04-14T22:51:51.342Z,6.00
2019-04-14T22:54:19.309Z,6.00
2019-04-14T22:56:49.696Z,6.10
2019-04-14T22:59:17.814Z,6.10
2019-04-14T23:01:47.735Z,6.10
2019-04-14T23:04:30.946Z,6.10
2019-04-14T23:07:23.528Z,6.20
2019-04-14T23:10:14.888Z,6.20
2019-04-14T23:13:05.469Z,6.20
2019-04-14T23:16:01.239Z,6.20
2019-04-14T23:18:45.591Z,6.20
2019-04-14T23:21:49.285Z,6.20
2019-04-14T23:24:25.584Z,6.20
2019-04-14T23:26:55.571Z,6.10
2019-04-14T23:29:34.991Z,6.10
2019-04-14T23:32:01.880Z,6.00
2019-04-14T23:34:29.798Z,6.00
2019-04-14T23:37:02.687Z,5.90
2019-04-14T23:39:29.636Z,5.90
2019-04-14T23:41:56.572Z,5.90
2019-04-14T23:44:24.478Z,5.80
2019-04-14T23:46:51.453Z,5.70
2019-04-14T23:49:18.320Z,5.70
2019-04-14T23:51:51.255Z,5.60
2019-04-14T23:54:27.388Z,5.60
2019-04-14T23:57:05.324Z,5.50
2019-04-14T23:59:32.479Z,5.50
